Angel Albino Corzo International Airport
MMTG : now visible

Airfield :











YOU CAN JOIN US ON...

 
LOGIN :

Register | Disclaimer

   EN    FR    IT 

 









Legend :    VFR   Marginal VFR   IFR   Intensive IFR   Very Intensive IFR
Visi :
Ceiling :
>= 8 km
>= 3000ft
5 to 8 km
1000 to 3000 ft
1500m to 5 km
500 to 1000 ft
800 to 1500m
200 to 500 ft
< 800m
< 200 ft
Symbols :   Thunderstorms  Fog  Heavy snow  Heavy precipitations  Wind > 20 kt






- Airport Elevation : 1499 ft


MMTG - Angel Albino Corzo International

CURRENT METAR :
  • 251547Z 00000KT 4SM SKC 24/17 A3013 RMK FU HZ ST OVR MT

EXPIRED METARs :
  • 251449Z 00000KT 4SM SKC 22/17 A3014 RMK SLP176 52023 921 FU HZ ST OVR MT
  • 251353Z 00000KT 4SM SKC 19/16 A3012 RMK BR FU HZ

TAF TAF MMTG
Valid from the 25 at 06:00 until the 26 at 06:00 UTC


250532Z 2506/2606 28006KT 4SM HZ SCT120 SCT250
TEMPO 2511/2515 2SM BR HZ BKN020
FM251800 32014KT P6SM SCT030 BKN250
FM260500 32005KT 6SM HZ SCT250



MET'MAP, your aeronautical weather chart ! - Copyright ORBIFLY December 2007 - Disclaimer

ORBIFLY MET'MAP TEAM :

Programming & Development : Alexandra Zaïnal
Concept & original design : Baudouin d'Aumeries
Assistance for programming : Marc-Olivier Méhu
Technical & hardware support : Manuel Goepfert

Contact : metmap@orbifly.com




SOURCES & CREDITS :

   NOAA       Earth
Advisory